sensor_id;sensor_type;location;lat;lon;timestamp;P1;durP1;ratioP1;P2;durP2;ratioP2
67272;SDS011;54190;49.770;9.250;2023-05-21T00:00:48;20.70;;;16.47;;
67272;SDS011;54190;49.770;9.250;2023-05-21T00:03:15;21.47;;;17.33;;
67272;SDS011;54190;49.770;9.250;2023-05-21T00:05:42;22.73;;;17.83;;
67272;SDS011;54190;49.770;9.250;2023-05-21T00:08:11;20.77;;;16.03;;
67272;SDS011;54190;49.770;9.250;2023-05-21T00:10:36;20.60;;;16.70;;
67272;SDS011;54190;49.770;9.250;2023-05-21T00:13:02;22.37;;;16.30;;
67272;SDS011;54190;49.770;9.250;2023-05-21T00:15:28;20.30;;;17.03;;
67272;SDS011;54190;49.770;9.250;2023-05-21T00:17:53;23.03;;;16.10;;
67272;SDS011;54190;49.770;9.250;2023-05-21T00:20:19;21.50;;;17.33;;
67272;SDS011;54190;49.770;9.250;2023-05-21T00:22:45;20.80;;;16.70;;
67272;SDS011;54190;49.770;9.250;2023-05-21T00:25:12;20.93;;;17.17;;
67272;SDS011;54190;49.770;9.250;2023-05-21T00:27:37;26.13;;;17.93;;
67272;SDS011;54190;49.770;9.250;2023-05-21T00:30:04;23.87;;;18.33;;
67272;SDS011;54190;49.770;9.250;2023-05-21T00:32:30;22.83;;;17.20;;
67272;SDS011;54190;49.770;9.250;2023-05-21T00:34:56;22.50;;;17.63;;
67272;SDS011;54190;49.770;9.250;2023-05-21T00:37:22;23.07;;;17.37;;
67272;SDS011;54190;49.770;9.250;2023-05-21T00:39:48;25.03;;;18.90;;
67272;SDS011;54190;49.770;9.250;2023-05-21T00:42:15;22.20;;;17.60;;
67272;SDS011;54190;49.770;9.250;2023-05-21T00:44:43;19.40;;;16.37;;
67272;SDS011;54190;49.770;9.250;2023-05-21T00:47:09;22.17;;;17.97;;
67272;SDS011;54190;49.770;9.250;2023-05-21T00:49:37;22.73;;;18.20;;
67272;SDS011;54190;49.770;9.250;2023-05-21T00:52:03;20.63;;;17.53;;
67272;SDS011;54190;49.770;9.250;2023-05-21T00:54:29;21.67;;;17.73;;
67272;SDS011;54190;49.770;9.250;2023-05-21T00:56:55;27.30;;;18.50;;
67272;SDS011;54190;49.770;9.250;2023-05-21T00:59:22;21.37;;;17.17;;
67272;SDS011;54190;49.770;9.250;2023-05-21T01:01:48;21.73;;;18.37;;
67272;SDS011;54190;49.770;9.250;2023-05-21T01:04:23;22.87;;;19.00;;
67272;SDS011;54190;49.770;9.250;2023-05-21T01:06:48;22.20;;;17.90;;
67272;SDS011;54190;49.770;9.250;2023-05-21T01:09:14;21.80;;;17.80;;
67272;SDS011;54190;49.770;9.250;2023-05-21T01:11:42;23.93;;;18.90;;
67272;SDS011;54190;49.770;9.250;2023-05-21T01:14:11;23.23;;;17.37;;
67272;SDS011;54190;49.770;9.250;2023-05-21T01:16:39;22.00;;;17.90;;
67272;SDS011;54190;49.770;9.250;2023-05-21T01:19:08;24.17;;;19.50;;
67272;SDS011;54190;49.770;9.250;2023-05-21T01:21:40;22.80;;;18.60;;
67272;SDS011;54190;49.770;9.250;2023-05-21T01:24:16;28.93;;;18.50;;
67272;SDS011;54190;49.770;9.250;2023-05-21T01:26:43;26.47;;;19.67;;
67272;SDS011;54190;49.770;9.250;2023-05-21T01:29:11;24.70;;;18.43;;
67272;SDS011;54190;49.770;9.250;2023-05-21T01:31:51;24.63;;;18.90;;
67272;SDS011;54190;49.770;9.250;2023-05-21T01:34:28;28.10;;;17.93;;
67272;SDS011;54190;49.770;9.250;2023-05-21T01:37:00;25.97;;;19.53;;
67272;SDS011;54190;49.770;9.250;2023-05-21T01:39:49;23.80;;;18.37;;
67272;SDS011;54190;49.770;9.250;2023-05-21T01:42:20;24.37;;;19.77;;
67272;SDS011;54190;49.770;9.250;2023-05-21T01:44:47;26.87;;;21.30;;
67272;SDS011;54190;49.770;9.250;2023-05-21T01:47:16;26.17;;;20.20;;
67272;SDS011;54190;49.770;9.250;2023-05-21T01:49:42;27.23;;;20.70;;
67272;SDS011;54190;49.770;9.250;2023-05-21T01:52:09;28.03;;;20.10;;
67272;SDS011;54190;49.770;9.250;2023-05-21T01:54:35;39.50;;;21.13;;
67272;SDS011;54190;49.770;9.250;2023-05-21T01:57:00;24.40;;;20.03;;
67272;SDS011;54190;49.770;9.250;2023-05-21T01:59:26;25.00;;;20.03;;
67272;SDS011;54190;49.770;9.250;2023-05-21T02:01:51;25.30;;;19.80;;
67272;SDS011;54190;49.770;9.250;2023-05-21T02:04:17;26.77;;;19.43;;
67272;SDS011;54190;49.770;9.250;2023-05-21T02:06:43;24.20;;;19.40;;
67272;SDS011;54190;49.770;9.250;2023-05-21T02:09:08;25.53;;;19.80;;
67272;SDS011;54190;49.770;9.250;2023-05-21T02:11:34;22.27;;;18.77;;
67272;SDS011;54190;49.770;9.250;2023-05-21T02:14:00;26.83;;;20.43;;
67272;SDS011;54190;49.770;9.250;2023-05-21T02:16:25;26.63;;;21.10;;
67272;SDS011;54190;49.770;9.250;2023-05-21T02:18:51;25.10;;;18.47;;
67272;SDS011;54190;49.770;9.250;2023-05-21T02:21:21;26.17;;;20.43;;
67272;SDS011;54190;49.770;9.250;2023-05-21T02:23:47;27.67;;;21.07;;
67272;SDS011;54190;49.770;9.250;2023-05-21T02:26:12;25.20;;;20.03;;
67272;SDS011;54190;49.770;9.250;2023-05-21T02:28:38;25.33;;;19.37;;
67272;SDS011;54190;49.770;9.250;2023-05-21T02:31:04;25.40;;;19.47;;
67272;SDS011;54190;49.770;9.250;2023-05-21T02:33:30;25.03;;;19.60;;
67272;SDS011;54190;49.770;9.250;2023-05-21T02:35:56;27.50;;;18.73;;
67272;SDS011;54190;49.770;9.250;2023-05-21T02:38:21;26.07;;;18.70;;
67272;SDS011;54190;49.770;9.250;2023-05-21T02:40:49;28.20;;;19.20;;
67272;SDS011;54190;49.770;9.250;2023-05-21T02:43:15;23.90;;;18.77;;
67272;SDS011;54190;49.770;9.250;2023-05-21T02:45:41;27.37;;;20.07;;
67272;SDS011;54190;49.770;9.250;2023-05-21T02:48:07;24.97;;;19.67;;
67272;SDS011;54190;49.770;9.250;2023-05-21T02:50:37;25.20;;;19.53;;
67272;SDS011;54190;49.770;9.250;2023-05-21T02:53:03;27.47;;;20.63;;
67272;SDS011;54190;49.770;9.250;2023-05-21T02:55:29;25.73;;;20.40;;
67272;SDS011;54190;49.770;9.250;2023-05-21T02:57:55;23.90;;;19.00;;
67272;SDS011;54190;49.770;9.250;2023-05-21T03:00:20;26.43;;;18.33;;
67272;SDS011;54190;49.770;9.250;2023-05-21T03:02:46;22.37;;;18.37;;
67272;SDS011;54190;49.770;9.250;2023-05-21T03:05:12;25.20;;;19.50;;
67272;SDS011;54190;49.770;9.250;2023-05-21T03:07:37;25.57;;;19.77;;
67272;SDS011;54190;49.770;9.250;2023-05-21T03:10:03;26.60;;;19.43;;
67272;SDS011;54190;49.770;9.250;2023-05-21T03:12:29;28.50;;;19.17;;
67272;SDS011;54190;49.770;9.250;2023-05-21T03:14:55;26.90;;;19.40;;
67272;SDS011;54190;49.770;9.250;2023-05-21T03:17:20;23.40;;;19.10;;
67272;SDS011;54190;49.770;9.250;2023-05-21T03:19:46;27.70;;;20.10;;
67272;SDS011;54190;49.770;9.250;2023-05-21T03:22:13;24.30;;;18.70;;
67272;SDS011;54190;49.770;9.250;2023-05-21T03:24:38;26.50;;;18.90;;
67272;SDS011;54190;49.770;9.250;2023-05-21T03:27:05;32.60;;;18.00;;
67272;SDS011;54190;49.770;9.250;2023-05-21T03:29:31;25.67;;;18.93;;
67272;SDS011;54190;49.770;9.250;2023-05-21T03:31:59;29.10;;;20.33;;
67272;SDS011;54190;49.770;9.250;2023-05-21T03:34:25;24.93;;;19.27;;
67272;SDS011;54190;49.770;9.250;2023-05-21T03:36:51;25.40;;;18.30;;
67272;SDS011;54190;49.770;9.250;2023-05-21T03:39:17;29.60;;;19.67;;
67272;SDS011;54190;49.770;9.250;2023-05-21T03:41:43;25.33;;;19.87;;
67272;SDS011;54190;49.770;9.250;2023-05-21T03:44:15;25.50;;;19.73;;
67272;SDS011;54190;49.770;9.250;2023-05-21T03:46:49;26.50;;;20.70;;
67272;SDS011;54190;49.770;9.250;2023-05-21T03:49:24;26.20;;;19.60;;
67272;SDS011;54190;49.770;9.250;2023-05-21T03:51:52;24.80;;;19.53;;
67272;SDS011;54190;49.770;9.250;2023-05-21T03:54:19;25.97;;;19.83;;
67272;SDS011;54190;49.770;9.250;2023-05-21T03:56:45;26.23;;;19.90;;
67272;SDS011;54190;49.770;9.250;2023-05-21T03:59:11;22.40;;;18.40;;
67272;SDS011;54190;49.770;9.250;2023-05-21T04:01:36;25.87;;;19.73;;
67272;SDS011;54190;49.770;9.250;2023-05-21T04:04:03;21.97;;;18.03;;
67272;SDS011;54190;49.770;9.250;2023-05-21T04:06:29;26.50;;;19.63;;
67272;SDS011;54190;49.770;9.250;2023-05-21T04:08:55;24.50;;;19.67;;
67272;SDS011;54190;49.770;9.250;2023-05-21T04:11:21;26.33;;;19.90;;
67272;SDS011;54190;49.770;9.250;2023-05-21T04:13:46;26.80;;;19.40;;
67272;SDS011;54190;49.770;9.250;2023-05-21T04:16:12;28.93;;;20.57;;
67272;SDS011;54190;49.770;9.250;2023-05-21T04:18:39;27.03;;;21.40;;
67272;SDS011;54190;49.770;9.250;2023-05-21T04:21:08;31.83;;;21.13;;
67272;SDS011;54190;49.770;9.250;2023-05-21T04:23:34;28.07;;;20.37;;
67272;SDS011;54190;49.770;9.250;2023-05-21T04:26:05;30.87;;;21.00;;
67272;SDS011;54190;49.770;9.250;2023-05-21T04:28:31;25.00;;;19.60;;
67272;SDS011;54190;49.770;9.250;2023-05-21T04:30:57;27.03;;;20.53;;
67272;SDS011;54190;49.770;9.250;2023-05-21T04:33:23;26.47;;;19.67;;
67272;SDS011;54190;49.770;9.250;2023-05-21T04:35:49;28.00;;;20.20;;
67272;SDS011;54190;49.770;9.250;2023-05-21T04:38:17;24.13;;;18.60;;
67272;SDS011;54190;49.770;9.250;2023-05-21T04:40:49;24.33;;;18.10;;
67272;SDS011;54190;49.770;9.250;2023-05-21T04:43:15;24.13;;;15.80;;
67272;SDS011;54190;49.770;9.250;2023-05-21T04:45:42;23.43;;;17.80;;
67272;SDS011;54190;49.770;9.250;2023-05-21T04:48:09;16.80;;;13.73;;
67272;SDS011;54190;49.770;9.250;2023-05-21T04:50:34;17.87;;;12.50;;
67272;SDS011;54190;49.770;9.250;2023-05-21T04:53:00;20.30;;;15.67;;
67272;SDS011;54190;49.770;9.250;2023-05-21T04:55:27;15.30;;;12.83;;
67272;SDS011;54190;49.770;9.250;2023-05-21T04:57:53;16.73;;;12.03;;
67272;SDS011;54190;49.770;9.250;2023-05-21T05:00:18;15.50;;;12.90;;
67272;SDS011;54190;49.770;9.250;2023-05-21T05:02:45;21.13;;;12.90;;
67272;SDS011;54190;49.770;9.250;2023-05-21T05:05:10;19.03;;;13.33;;
67272;SDS011;54190;49.770;9.250;2023-05-21T05:07:36;15.83;;;12.80;;
67272;SDS011;54190;49.770;9.250;2023-05-21T05:10:02;17.40;;;12.97;;
67272;SDS011;54190;49.770;9.250;2023-05-21T05:12:30;16.83;;;12.57;;
67272;SDS011;54190;49.770;9.250;2023-05-21T05:14:56;16.23;;;12.50;;
67272;SDS011;54190;49.770;9.250;2023-05-21T05:17:21;15.97;;;12.70;;
67272;SDS011;54190;49.770;9.250;2023-05-21T05:19:48;13.90;;;12.27;;
67272;SDS011;54190;49.770;9.250;2023-05-21T05:22:14;14.63;;;11.83;;
67272;SDS011;54190;49.770;9.250;2023-05-21T05:24:40;14.17;;;11.20;;
67272;SDS011;54190;49.770;9.250;2023-05-21T05:27:06;14.53;;;11.70;;
67272;SDS011;54190;49.770;9.250;2023-05-21T05:29:32;16.70;;;12.80;;
67272;SDS011;54190;49.770;9.250;2023-05-21T05:31:57;15.00;;;11.87;;
67272;SDS011;54190;49.770;9.250;2023-05-21T05:34:23;18.47;;;11.90;;
67272;SDS011;54190;49.770;9.250;2023-05-21T05:36:49;13.20;;;10.97;;
67272;SDS011;54190;49.770;9.250;2023-05-21T05:39:15;16.50;;;13.40;;
67272;SDS011;54190;49.770;9.250;2023-05-21T05:41:41;14.53;;;12.20;;
67272;SDS011;54190;49.770;9.250;2023-05-21T05:44:06;15.87;;;11.50;;
67272;SDS011;54190;49.770;9.250;2023-05-21T05:46:35;14.87;;;11.80;;
67272;SDS011;54190;49.770;9.250;2023-05-21T05:49:01;16.63;;;12.43;;
67272;SDS011;54190;49.770;9.250;2023-05-21T05:51:27;16.37;;;12.33;;
67272;SDS011;54190;49.770;9.250;2023-05-21T05:53:54;16.63;;;13.20;;
67272;SDS011;54190;49.770;9.250;2023-05-21T05:56:20;16.07;;;12.60;;
67272;SDS011;54190;49.770;9.250;2023-05-21T05:58:46;15.67;;;11.90;;
67272;SDS011;54190;49.770;9.250;2023-05-21T06:01:13;13.67;;;11.23;;
67272;SDS011;54190;49.770;9.250;2023-05-21T06:03:39;17.60;;;12.57;;
67272;SDS011;54190;49.770;9.250;2023-05-21T06:06:11;15.50;;;11.63;;
67272;SDS011;54190;49.770;9.250;2023-05-21T06:08:37;15.20;;;12.43;;
67272;SDS011;54190;49.770;9.250;2023-05-21T06:11:04;13.67;;;12.20;;
67272;SDS011;54190;49.770;9.250;2023-05-21T06:13:30;13.80;;;11.60;;
67272;SDS011;54190;49.770;9.250;2023-05-21T06:15:56;13.27;;;11.33;;
67272;SDS011;54190;49.770;9.250;2023-05-21T06:18:21;12.90;;;11.50;;
67272;SDS011;54190;49.770;9.250;2023-05-21T06:20:47;15.17;;;12.53;;
67272;SDS011;54190;49.770;9.250;2023-05-21T06:23:13;15.93;;;12.17;;
67272;SDS011;54190;49.770;9.250;2023-05-21T06:25:40;14.67;;;11.73;;
67272;SDS011;54190;49.770;9.250;2023-05-21T06:28:06;15.90;;;11.97;;
67272;SDS011;54190;49.770;9.250;2023-05-21T06:30:33;19.47;;;13.53;;
67272;SDS011;54190;49.770;9.250;2023-05-21T06:32:59;15.70;;;12.20;;
67272;SDS011;54190;49.770;9.250;2023-05-21T06:35:24;17.87;;;13.73;;
67272;SDS011;54190;49.770;9.250;2023-05-21T06:37:50;14.13;;;11.73;;
67272;SDS011;54190;49.770;9.250;2023-05-21T06:40:16;13.13;;;11.30;;
67272;SDS011;54190;49.770;9.250;2023-05-21T06:42:42;16.00;;;12.27;;
67272;SDS011;54190;49.770;9.250;2023-05-21T06:45:26;14.20;;;12.40;;
67272;SDS011;54190;49.770;9.250;2023-05-21T06:47:58;15.07;;;12.47;;
67272;SDS011;54190;49.770;9.250;2023-05-21T06:50:23;14.80;;;12.43;;
67272;SDS011;54190;49.770;9.250;2023-05-21T06:52:49;19.13;;;12.00;;
67272;SDS011;54190;49.770;9.250;2023-05-21T06:55:15;14.33;;;12.27;;
67272;SDS011;54190;49.770;9.250;2023-05-21T06:58:09;15.27;;;12.00;;
67272;SDS011;54190;49.770;9.250;2023-05-21T07:00:35;17.30;;;12.73;;
67272;SDS011;54190;49.770;9.250;2023-05-21T07:03:02;14.33;;;12.40;;
67272;SDS011;54190;49.770;9.250;2023-05-21T07:05:27;19.77;;;13.13;;
67272;SDS011;54190;49.770;9.250;2023-05-21T07:07:53;16.20;;;12.97;;
67272;SDS011;54190;49.770;9.250;2023-05-21T07:10:19;14.87;;;12.50;;
67272;SDS011;54190;49.770;9.250;2023-05-21T07:12:45;15.60;;;12.53;;
67272;SDS011;54190;49.770;9.250;2023-05-21T07:15:10;13.63;;;11.80;;
67272;SDS011;54190;49.770;9.250;2023-05-21T07:17:37;20.00;;;12.40;;
67272;SDS011;54190;49.770;9.250;2023-05-21T07:20:03;14.77;;;12.50;;
67272;SDS011;54190;49.770;9.250;2023-05-21T07:22:37;16.23;;;13.40;;
67272;SDS011;54190;49.770;9.250;2023-05-21T07:25:03;14.43;;;12.37;;
67272;SDS011;54190;49.770;9.250;2023-05-21T07:27:29;16.10;;;12.33;;
67272;SDS011;54190;49.770;9.250;2023-05-21T07:29:55;16.37;;;12.33;;
67272;SDS011;54190;49.770;9.250;2023-05-21T07:32:21;14.57;;;12.60;;
67272;SDS011;54190;49.770;9.250;2023-05-21T07:34:47;15.67;;;11.87;;
67272;SDS011;54190;49.770;9.250;2023-05-21T07:37:12;13.47;;;12.07;;
67272;SDS011;54190;49.770;9.250;2023-05-21T07:39:38;13.53;;;11.63;;
67272;SDS011;54190;49.770;9.250;2023-05-21T07:42:04;17.87;;;12.47;;
67272;SDS011;54190;49.770;9.250;2023-05-21T07:44:30;17.43;;;12.50;;
67272;SDS011;54190;49.770;9.250;2023-05-21T07:46:56;14.60;;;12.40;;
67272;SDS011;54190;49.770;9.250;2023-05-21T07:49:23;13.73;;;11.80;;
67272;SDS011;54190;49.770;9.250;2023-05-21T07:51:49;16.43;;;13.17;;
67272;SDS011;54190;49.770;9.250;2023-05-21T07:54:14;17.10;;;12.60;;
67272;SDS011;54190;49.770;9.250;2023-05-21T07:56:40;13.57;;;11.77;;
67272;SDS011;54190;49.770;9.250;2023-05-21T07:59:12;16.17;;;12.63;;
67272;SDS011;54190;49.770;9.250;2023-05-21T08:01:39;15.07;;;12.40;;
67272;SDS011;54190;49.770;9.250;2023-05-21T08:04:05;14.80;;;12.50;;
67272;SDS011;54190;49.770;9.250;2023-05-21T08:06:33;17.47;;;12.57;;
67272;SDS011;54190;49.770;9.250;2023-05-21T08:08:59;17.00;;;11.73;;
67272;SDS011;54190;49.770;9.250;2023-05-21T08:11:28;13.60;;;12.20;;
67272;SDS011;54190;49.770;9.250;2023-05-21T08:13:54;17.70;;;11.60;;
67272;SDS011;54190;49.770;9.250;2023-05-21T08:16:22;12.67;;;11.23;;
67272;SDS011;54190;49.770;9.250;2023-05-21T08:18:48;14.90;;;11.50;;
67272;SDS011;54190;49.770;9.250;2023-05-21T08:21:14;13.53;;;12.10;;
67272;SDS011;54190;49.770;9.250;2023-05-21T08:23:41;14.80;;;11.53;;
67272;SDS011;54190;49.770;9.250;2023-05-21T08:26:07;13.33;;;11.93;;
67272;SDS011;54190;49.770;9.250;2023-05-21T08:28:36;14.60;;;12.07;;
67272;SDS011;54190;49.770;9.250;2023-05-21T08:31:02;12.93;;;11.63;;
67272;SDS011;54190;49.770;9.250;2023-05-21T08:33:33;19.10;;;11.70;;
67272;SDS011;54190;49.770;9.250;2023-05-21T08:36:01;13.07;;;11.17;;
67272;SDS011;54190;49.770;9.250;2023-05-21T08:38:30;17.87;;;12.10;;
67272;SDS011;54190;49.770;9.250;2023-05-21T08:41:11;17.83;;;12.50;;
67272;SDS011;54190;49.770;9.250;2023-05-21T08:43:38;14.80;;;11.37;;
67272;SDS011;54190;49.770;9.250;2023-05-21T08:46:05;16.00;;;11.40;;
67272;SDS011;54190;49.770;9.250;2023-05-21T08:48:35;14.07;;;12.40;;
67272;SDS011;54190;49.770;9.250;2023-05-21T08:51:01;12.63;;;10.93;;
67272;SDS011;54190;49.770;9.250;2023-05-21T08:53:36;16.50;;;12.10;;
67272;SDS011;54190;49.770;9.250;2023-05-21T08:56:04;13.43;;;11.10;;
67272;SDS011;54190;49.770;9.250;2023-05-21T08:58:40;13.60;;;11.07;;
67272;SDS011;54190;49.770;9.250;2023-05-21T09:01:09;12.80;;;11.50;;
67272;SDS011;54190;49.770;9.250;2023-05-21T09:03:38;12.90;;;11.50;;
67272;SDS011;54190;49.770;9.250;2023-05-21T09:06:08;15.00;;;12.40;;
67272;SDS011;54190;49.770;9.250;2023-05-21T09:08:36;12.63;;;11.10;;
67272;SDS011;54190;49.770;9.250;2023-05-21T09:11:16;14.87;;;11.70;;
67272;SDS011;54190;49.770;9.250;2023-05-21T09:13:47;15.70;;;11.73;;
67272;SDS011;54190;49.770;9.250;2023-05-21T09:16:22;14.73;;;11.70;;
67272;SDS011;54190;49.770;9.250;2023-05-21T09:18:48;14.03;;;11.50;;
67272;SDS011;54190;49.770;9.250;2023-05-21T09:21:23;14.03;;;11.67;;
67272;SDS011;54190;49.770;9.250;2023-05-21T09:24:04;16.73;;;11.33;;
67272;SDS011;54190;49.770;9.250;2023-05-21T09:26:33;11.90;;;10.50;;
67272;SDS011;54190;49.770;9.250;2023-05-21T09:29:02;13.80;;;11.70;;
67272;SDS011;54190;49.770;9.250;2023-05-21T09:31:28;12.40;;;11.10;;
67272;SDS011;54190;49.770;9.250;2023-05-21T09:33:54;12.43;;;11.13;;
67272;SDS011;54190;49.770;9.250;2023-05-21T09:36:21;13.00;;;10.80;;
67272;SDS011;54190;49.770;9.250;2023-05-21T09:38:47;13.70;;;11.10;;
67272;SDS011;54190;49.770;9.250;2023-05-21T09:41:14;11.03;;;9.83;;
67272;SDS011;54190;49.770;9.250;2023-05-21T09:43:43;13.20;;;11.00;;
67272;SDS011;54190;49.770;9.250;2023-05-21T09:46:09;12.00;;;10.80;;
67272;SDS011;54190;49.770;9.250;2023-05-21T09:48:39;12.80;;;11.23;;
67272;SDS011;54190;49.770;9.250;2023-05-21T09:53:49;12.33;;;10.90;;
67272;SDS011;54190;49.770;9.250;2023-05-21T09:56:20;12.83;;;10.97;;
67272;SDS011;54190;49.770;9.250;2023-05-21T09:58:47;14.10;;;10.87;;
67272;SDS011;54190;49.770;9.250;2023-05-21T10:01:15;12.40;;;10.43;;
67272;SDS011;54190;49.770;9.250;2023-05-21T10:03:43;12.20;;;10.63;;
67272;SDS011;54190;49.770;9.250;2023-05-21T10:06:15;13.03;;;9.67;;
67272;SDS011;54190;49.770;9.250;2023-05-21T10:08:43;10.93;;;9.83;;
67272;SDS011;54190;49.770;9.250;2023-05-21T10:11:12;12.07;;;9.97;;
67272;SDS011;54190;49.770;9.250;2023-05-21T10:13:40;15.13;;;10.77;;
67272;SDS011;54190;49.770;9.250;2023-05-21T10:16:11;12.40;;;10.83;;
67272;SDS011;54190;49.770;9.250;2023-05-21T10:18:38;11.60;;;10.40;;
67272;SDS011;54190;49.770;9.250;2023-05-21T10:21:05;11.30;;;10.20;;
67272;SDS011;54190;49.770;9.250;2023-05-21T10:23:32;13.00;;;10.07;;
67272;SDS011;54190;49.770;9.250;2023-05-21T10:26:01;12.13;;;10.37;;
67272;SDS011;54190;49.770;9.250;2023-05-21T10:28:27;10.23;;;9.23;;
67272;SDS011;54190;49.770;9.250;2023-05-21T10:30:54;11.60;;;10.40;;
67272;SDS011;54190;49.770;9.250;2023-05-21T10:33:21;13.17;;;11.77;;
67272;SDS011;54190;49.770;9.250;2023-05-21T10:35:48;13.47;;;12.07;;
67272;SDS011;54190;49.770;9.250;2023-05-21T10:38:17;12.80;;;11.20;;
67272;SDS011;54190;49.770;9.250;2023-05-21T10:40:45;13.83;;;10.37;;
67272;SDS011;54190;49.770;9.250;2023-05-21T10:45:52;13.03;;;9.70;;
67272;SDS011;54190;49.770;9.250;2023-05-21T10:48:50;10.93;;;9.80;;
67272;SDS011;54190;49.770;9.250;2023-05-21T11:00:04;11.40;;;9.73;;
67272;SDS011;54190;49.770;9.250;2023-05-21T11:02:32;10.53;;;9.33;;
67272;SDS011;54190;49.770;9.250;2023-05-21T11:04:58;11.03;;;9.80;;
67272;SDS011;54190;49.770;9.250;2023-05-21T11:10:28;12.00;;;9.70;;
67272;SDS011;54190;49.770;9.250;2023-05-21T11:13:15;12.70;;;9.97;;
67272;SDS011;54190;49.770;9.250;2023-05-21T11:21:02;10.87;;;9.10;;
67272;SDS011;54190;49.770;9.250;2023-05-21T11:26:14;10.80;;;9.70;;
67272;SDS011;54190;49.770;9.250;2023-05-21T11:28:43;10.60;;;9.50;;
67272;SDS011;54190;49.770;9.250;2023-05-21T11:31:24;10.00;;;9.00;;
67272;SDS011;54190;49.770;9.250;2023-05-21T11:39:48;9.90;;;8.70;;
67272;SDS011;54190;49.770;9.250;2023-05-21T11:42:27;11.80;;;9.80;;
67272;SDS011;54190;49.770;9.250;2023-05-21T11:44:54;9.30;;;8.30;;
67272;SDS011;54190;49.770;9.250;2023-05-21T11:47:24;8.63;;;7.83;;
67272;SDS011;54190;49.770;9.250;2023-05-21T11:49:53;9.20;;;8.30;;
67272;SDS011;54190;49.770;9.250;2023-05-21T11:52:19;8.70;;;7.80;;
67272;SDS011;54190;49.770;9.250;2023-05-21T11:54:46;8.53;;;7.43;;
67272;SDS011;54190;49.770;9.250;2023-05-21T11:57:19;9.13;;;8.20;;
67272;SDS011;54190;49.770;9.250;2023-05-21T11:59:46;13.50;;;8.30;;
67272;SDS011;54190;49.770;9.250;2023-05-21T12:02:16;9.67;;;8.13;;
67272;SDS011;54190;49.770;9.250;2023-05-21T12:04:44;8.90;;;8.00;;
67272;SDS011;54190;49.770;9.250;2023-05-21T12:07:13;8.70;;;7.80;;
67272;SDS011;54190;49.770;9.250;2023-05-21T12:09:43;11.20;;;8.23;;
67272;SDS011;54190;49.770;9.250;2023-05-21T12:12:11;9.00;;;8.10;;
67272;SDS011;54190;49.770;9.250;2023-05-21T12:14:38;9.23;;;8.33;;
67272;SDS011;54190;49.770;9.250;2023-05-21T12:17:05;8.87;;;7.93;;
67272;SDS011;54190;49.770;9.250;2023-05-21T12:19:32;10.40;;;8.53;;
67272;SDS011;54190;49.770;9.250;2023-05-21T12:21:59;12.43;;;8.93;;
67272;SDS011;54190;49.770;9.250;2023-05-21T12:24:26;16.17;;;9.33;;
67272;SDS011;54190;49.770;9.250;2023-05-21T12:26:51;10.20;;;8.23;;
67272;SDS011;54190;49.770;9.250;2023-05-21T12:29:19;10.30;;;8.03;;
67272;SDS011;54190;49.770;9.250;2023-05-21T12:31:48;12.70;;;8.27;;
67272;SDS011;54190;49.770;9.250;2023-05-21T12:34:14;8.43;;;7.60;;
67272;SDS011;54190;49.770;9.250;2023-05-21T12:36:43;9.43;;;7.90;;
67272;SDS011;54190;49.770;9.250;2023-05-21T12:39:15;9.07;;;8.20;;
67272;SDS011;54190;49.770;9.250;2023-05-21T12:41:41;9.00;;;8.20;;
67272;SDS011;54190;49.770;9.250;2023-05-21T12:44:08;9.53;;;8.53;;
67272;SDS011;54190;49.770;9.250;2023-05-21T12:46:35;10.83;;;9.03;;
67272;SDS011;54190;49.770;9.250;2023-05-21T12:49:01;9.47;;;8.40;;
67272;SDS011;54190;49.770;9.250;2023-05-21T12:51:36;8.47;;;7.67;;
67272;SDS011;54190;49.770;9.250;2023-05-21T12:54:02;9.10;;;8.20;;
67272;SDS011;54190;49.770;9.250;2023-05-21T12:56:28;11.60;;;8.67;;
67272;SDS011;54190;49.770;9.250;2023-05-21T12:59:12;8.70;;;7.80;;
67272;SDS011;54190;49.770;9.250;2023-05-21T13:01:39;9.03;;;8.17;;
67272;SDS011;54190;49.770;9.250;2023-05-21T13:04:05;10.10;;;7.77;;
67272;SDS011;54190;49.770;9.250;2023-05-21T13:06:40;9.03;;;8.07;;
67272;SDS011;54190;49.770;9.250;2023-05-21T13:09:08;9.23;;;8.43;;
67272;SDS011;54190;49.770;9.250;2023-05-21T13:11:34;8.93;;;8.07;;
67272;SDS011;54190;49.770;9.250;2023-05-21T13:13:59;8.13;;;7.07;;
67272;SDS011;54190;49.770;9.250;2023-05-21T13:16:25;8.57;;;7.70;;
67272;SDS011;54190;49.770;9.250;2023-05-21T13:18:51;9.97;;;7.73;;
67272;SDS011;54190;49.770;9.250;2023-05-21T13:21:16;8.00;;;7.20;;
67272;SDS011;54190;49.770;9.250;2023-05-21T13:23:42;9.27;;;6.57;;
67272;SDS011;54190;49.770;9.250;2023-05-21T13:26:07;8.43;;;7.63;;
67272;SDS011;54190;49.770;9.250;2023-05-21T13:28:33;11.67;;;8.60;;
67272;SDS011;54190;49.770;9.250;2023-05-21T13:30:59;8.63;;;7.10;;
67272;SDS011;54190;49.770;9.250;2023-05-21T13:33:25;10.10;;;7.70;;
67272;SDS011;54190;49.770;9.250;2023-05-21T13:35:50;7.27;;;6.53;;
67272;SDS011;54190;49.770;9.250;2023-05-21T13:38:16;9.93;;;7.60;;
67272;SDS011;54190;49.770;9.250;2023-05-21T13:40:42;7.33;;;6.63;;
67272;SDS011;54190;49.770;9.250;2023-05-21T13:43:08;8.27;;;7.47;;
67272;SDS011;54190;49.770;9.250;2023-05-21T13:45:33;7.90;;;7.10;;
67272;SDS011;54190;49.770;9.250;2023-05-21T13:47:59;11.03;;;7.73;;
67272;SDS011;54190;49.770;9.250;2023-05-21T13:50:25;8.27;;;7.47;;
67272;SDS011;54190;49.770;9.250;2023-05-21T13:52:51;8.57;;;7.77;;
67272;SDS011;54190;49.770;9.250;2023-05-21T13:55:16;8.07;;;6.87;;
67272;SDS011;54190;49.770;9.250;2023-05-21T13:57:43;7.80;;;7.10;;
67272;SDS011;54190;49.770;9.250;2023-05-21T14:00:09;11.33;;;7.83;;
67272;SDS011;54190;49.770;9.250;2023-05-21T14:02:40;8.67;;;7.87;;
67272;SDS011;54190;49.770;9.250;2023-05-21T14:05:07;8.30;;;7.60;;
67272;SDS011;54190;49.770;9.250;2023-05-21T14:07:33;8.60;;;7.53;;
67272;SDS011;54190;49.770;9.250;2023-05-21T14:09:59;8.70;;;7.90;;
67272;SDS011;54190;49.770;9.250;2023-05-21T14:12:24;8.57;;;7.77;;
67272;SDS011;54190;49.770;9.250;2023-05-21T14:14:51;8.47;;;7.67;;
67272;SDS011;54190;49.770;9.250;2023-05-21T14:17:16;9.03;;;8.17;;
67272;SDS011;54190;49.770;9.250;2023-05-21T14:19:42;9.97;;;8.13;;
67272;SDS011;54190;49.770;9.250;2023-05-21T14:22:07;10.20;;;7.80;;
67272;SDS011;54190;49.770;9.250;2023-05-21T14:24:33;9.63;;;8.63;;
67272;SDS011;54190;49.770;9.250;2023-05-21T14:26:59;10.37;;;8.57;;
67272;SDS011;54190;49.770;9.250;2023-05-21T14:29:24;9.50;;;8.50;;
67272;SDS011;54190;49.770;9.250;2023-05-21T14:31:50;8.93;;;8.13;;
67272;SDS011;54190;49.770;9.250;2023-05-21T14:34:15;9.57;;;8.50;;
67272;SDS011;54190;49.770;9.250;2023-05-21T14:36:41;9.07;;;7.73;;
67272;SDS011;54190;49.770;9.250;2023-05-21T14:39:07;9.60;;;8.67;;
67272;SDS011;54190;49.770;9.250;2023-05-21T14:41:32;8.67;;;7.80;;
67272;SDS011;54190;49.770;9.250;2023-05-21T14:43:58;9.03;;;8.10;;
67272;SDS011;54190;49.770;9.250;2023-05-21T14:46:23;9.43;;;8.53;;
67272;SDS011;54190;49.770;9.250;2023-05-21T14:48:49;9.93;;;8.33;;
67272;SDS011;54190;49.770;9.250;2023-05-21T14:51:15;10.33;;;8.67;;
67272;SDS011;54190;49.770;9.250;2023-05-21T14:53:41;9.03;;;8.10;;
67272;SDS011;54190;49.770;9.250;2023-05-21T14:56:06;9.37;;;8.43;;
67272;SDS011;54190;49.770;9.250;2023-05-21T14:58:32;12.73;;;8.43;;
67272;SDS011;54190;49.770;9.250;2023-05-21T15:00:58;9.20;;;8.20;;